CDT,Max TemperatureF,Mean TemperatureF,Min TemperatureF,Max Dew PointF,MeanDew PointF,Min DewpointF,Max Humidity, Mean Humidity, Min Humidity, Max Sea Level PressureIn, Mean Sea Level PressureIn, Min Sea Level PressureIn, Max VisibilityMiles, Mean VisibilityMiles, Min VisibilityMiles, Max Wind SpeedMPH, Mean Wind SpeedMPH, Max Gust SpeedMPH,PrecipitationIn, CloudCover, Events, WindDirDegrees
2013-6-1,89,82,74,76,75,73,94,78,62,29.99,29.95,29.93,10,10,10,13,7,17,0.00,4,,131
2013-6-2,86,78,70,78,73,69,96,88,71,30.02,29.94,29.86,10,9,3,20,4,31,0.38,3,Rain-Thunderstorm,91
2013-6-3,90,79,68,76,73,68,100,84,60,29.93,29.89,29.84,10,10,5,9,2,,0.00,4,Rain,82
2013-6-4,91,80,69,77,74,69,100,79,59,29.93,29.90,29.86,10,9,1,14,4,18,0.00,2,,67
2013-6-5,89,84,78,76,75,74,87,77,63,29.91,29.87,29.82,10,10,4,14,8,21,0.10,3,Rain,92
2013-6-6,91,81,71,75,72,68,97,74,47,29.86,29.82,29.76,10,10,2,22,4,32,0.25,2,Rain-Thunderstorm,56
2013-6-7,88,79,70,74,71,69,95,78,51,29.91,29.85,29.78,10,10,7,10,4,17,0.01,3,Rain-Thunderstorm,239
2013-6-8,90,80,71,77,73,70,95,78,58,29.97,29.93,29.88,10,10,2,10,3,17,0.45,3,Rain-Thunderstorm,148
2013-6-9,86,80,75,77,75,70,92,82,65,29.99,29.95,29.91,10,10,7,16,8,24,0.07,3,Rain-Thunderstorm,149
2013-6-10,90,84,77,79,77,68,94,82,61,30.05,30.01,29.96,10,8,2,13,5,34,0.18,3,Rain-Thunderstorm,172
2013-6-11,91,82,75,77,76,73,96,78,62,30.10,30.05,30.03,10,9,5,9,3,,0.00,3,,147
2013-6-12,92,81,70,78,73,70,100,77,48,30.11,30.07,30.03,10,10,1,9,1,,0.00,0,,188
2013-6-13,92,82,71,79,75,70,99,77,53,30.08,30.00,29.91,10,10,5,13,3,16,0.00,1,,242
2013-6-14,95,86,77,80,77,71,92,81,61,29.97,29.92,29.85,10,10,10,14,6,20,0.00,2,Rain-Thunderstorm,253
2013-6-15,93,84,77,81,78,75,94,79,62,30.02,29.96,29.91,10,10,7,13,4,16,0.00,3,Rain-Thunderstorm,78
2013-6-16,92,85,78,78,76,74,94,75,57,30.06,30.01,29.98,10,10,10,15,4,20,0.00,3,Rain-Thunderstorm,200
2013-6-17,91,82,75,78,75,73,94,75,58,30.04,30.00,29.95,10,10,2,16,5,22,0.17,2,Rain-Thunderstorm,192
2013-6-18,93,86,79,75,73,70,83,68,48,30.03,29.98,29.92,10,10,10,15,7,21,0.00,2,Rain-Thunderstorm,216
2013-6-19,93,82,71,77,74,70,95,77,51,30.04,30.00,29.95,10,10,10,13,2,,0.00,1,Thunderstorm,299
2013-6-20,91,81,71,78,73,70,100,85,53,30.12,30.07,30.01,10,10,5,15,2,23,0.03,1,Rain-Thunderstorm,319
2013-6-21,93,80,68,76,72,68,100,79,52,30.12,30.08,30.05,10,10,5,9,2,,0.04,0,Thunderstorm,24
2013-6-22,91,80,70,77,74,70,100,79,56,30.10,30.05,30.00,10,9,2,14,3,21,0.29,1,Rain-Thunderstorm,58
2013-6-23,91,82,72,78,74,72,99,78,56,30.07,30.04,30.01,10,10,7,13,3,20,0.02,2,Rain-Thunderstorm,155
2013-6-24,93,84,74,77,74,69,94,75,46,30.14,30.10,30.06,10,10,10,10,4,,0.00,2,Thunderstorm,120
2013-6-25,93,83,74,77,74,68,98,72,44,30.11,30.07,30.02,10,10,3,12,3,17,0.20,2,Rain-Thunderstorm,170
2013-6-26,92,83,74,79,76,73,95,79,57,30.06,30.02,29.98,10,10,7,14,2,23,0.05,2,Rain-Thunderstorm,150
2013-6-27,95,86,77,79,77,73,94,75,52,30.04,29.99,29.94,10,10,7,10,3,,0.00,2,Rain,209
2013-6-28,95,89,83,80,78,74,87,72,51,29.97,29.89,29.81,10,10,7,15,5,16,0.00,2,Rain,237
2013-6-29,90,82,75,79,76,70,92,78,58,29.87,29.79,29.73,10,10,7,18,6,30,0.00,3,Rain-Thunderstorm,236
2013-6-30,95,84,72,79,70,59,96,66,32,29.81,29.76,29.72,10,10,10,10,4,17,0.00,2,Thunderstorm,273